Time;durP1;ratioP1;P1;durP2;ratioP2;P2;SDS_P1;SDS_P2;PMS_P1;PMS_P2;Temp;Humidity;BMP_temperature;BMP_pressure;BME280_temperature;BME280_humidity;BME280_pressure;Samples;Min_cycle;Max_cycle;Signal;HPM_P1;HPM_P2
2023/01/19 00:01:44;;;;;;;;;;;2.40;99.90;;;;;;4987865;28;19929;-75
2023/01/19 00:04:11;;;;;;;;;;;2.30;99.90;;;;;;4986080;28;19930;-75
2023/01/19 00:06:38;;;;;;;;;;;2.20;99.90;;;;;;4985536;28;20175;-73
2023/01/19 00:09:04;;;;;;;;;;;2.20;99.90;;;;;;4979027;28;20307;-76
2023/01/19 00:11:31;;;;;;;;;;;2.10;99.90;;;;;;4981289;28;20409;-75
2023/01/19 00:13:59;;;;;;;;;;;2.10;99.90;;;;;;4988924;28;19936;-75
2023/01/19 00:16:26;;;;;;;;;;;2.10;99.90;;;;;;4977989;28;19930;-75
2023/01/19 00:18:53;;;;;;;;;;;2.10;99.90;;;;;;4983928;28;19981;-75
2023/01/19 00:21:21;;;;;;;;;;;2.10;99.90;;;;;;4989706;28;20405;-75
2023/01/19 00:23:49;;;;;;;;;;;2.00;99.90;;;;;;4987635;28;20031;-75
2023/01/19 00:26:17;;;;;;;;;;;1.90;99.90;;;;;;4982071;28;20052;-75
2023/01/19 00:28:44;;;;;;;;;;;1.90;99.90;;;;;;4987085;28;20071;-75
2023/01/19 00:31:12;;;;;;;;;;;3.00;99.90;;;;;;4979986;28;19941;-75
2023/01/19 00:33:39;;;;;;;;;;;1.90;99.90;;;;;;4987640;28;19929;-75
2023/01/19 00:36:06;;;;;;;;;;;1.90;99.90;;;;;;4988526;28;19926;-76
2023/01/19 00:38:33;;;;;;;;;;;1.90;99.90;;;;;;4983077;28;19937;-75
2023/01/19 00:40:59;;;;;;;;;;;1.90;99.90;;;;;;4984464;28;19957;-76
2023/01/19 00:43:27;;;;;;;;;;;1.90;99.90;;;;;;4981363;28;19929;-76
2023/01/19 00:45:53;;;;;;;;;;;1.90;99.90;;;;;;4990220;28;20294;-76
2023/01/19 00:48:21;;;;;;;;;;;1.90;99.90;;;;;;4989346;28;19926;-77
2023/01/19 00:50:48;;;;;;;;;;;1.90;99.90;;;;;;4981750;28;19930;-76
2023/01/19 00:53:15;;;;;;;;;;;1.90;99.90;;;;;;4986487;28;20370;-76
2023/01/19 00:55:42;;;;;;;;;;;1.80;99.90;;;;;;4985709;28;19942;-76
2023/01/19 00:58:08;;;;;;;;;;;1.80;99.90;;;;;;4981218;28;20010;-76
2023/01/19 01:00:35;;;;;;;;;;;1.80;99.90;;;;;;4985819;28;20006;-77
2023/01/19 01:03:02;;;;;;;;;;;1.80;99.90;;;;;;4975690;28;19933;-76
2023/01/19 01:05:30;;;;;;;;;;;1.80;99.90;;;;;;4981395;28;20014;-75
2023/01/19 01:07:57;;;;;;;;;;;1.80;99.90;;;;;;4983981;28;20409;-76
2023/01/19 01:10:24;;;;;;;;;;;1.90;99.90;;;;;;4985681;28;20035;-76
2023/01/19 01:12:51;;;;;;;;;;;2.00;99.90;;;;;;4984639;28;19948;-76
2023/01/19 01:15:18;;;;;;;;;;;2.00;99.90;;;;;;4991136;28;19926;-76
2023/01/19 01:17:47;;;;;;;;;;;2.00;99.90;;;;;;4984288;28;19930;-76
2023/01/19 01:20:18;;;;;;;;;;;2.10;99.90;;;;;;4984020;28;19930;-76
2023/01/19 01:22:48;;;;;;;;;;;2.10;99.90;;;;;;4983377;28;20171;-76
2023/01/19 01:25:16;;;;;;;;;;;2.20;99.90;;;;;;4984770;28;19952;-76
2023/01/19 01:27:43;;;;;;;;;;;2.30;99.90;;;;;;4984261;28;19926;-76
2023/01/19 01:30:10;;;;;;;;;;;2.40;99.90;;;;;;4987155;28;20267;-77
2023/01/19 01:32:37;;;;;;;;;;;2.40;99.90;;;;;;4981527;28;19929;-76
2023/01/19 01:35:04;;;;;;;;;;;2.50;99.90;;;;;;4985689;28;20493;-77
2023/01/19 01:37:31;;;;;;;;;;;2.60;99.90;;;;;;4985988;28;19925;-76
2023/01/19 01:39:59;;;;;;;;;;;2.60;99.90;;;;;;4983648;28;19937;-76
2023/01/19 01:42:27;;;;;;;;;;;2.70;99.90;;;;;;4987145;28;19930;-77
2023/01/19 01:44:54;;;;;;;;;;;2.70;99.90;;;;;;4984010;28;19933;-76
2023/01/19 01:47:25;;;;;;;;;;;2.70;99.90;;;;;;4987022;28;20325;-77
2023/01/19 01:49:52;;;;;;;;;;;2.70;99.90;;;;;;4979349;28;19936;-76
2023/01/19 01:52:19;;;;;;;;;;;2.70;99.90;;;;;;4985180;28;19937;-76
2023/01/19 01:54:46;;;;;;;;;;;2.80;99.90;;;;;;4987169;28;19930;-76
2023/01/19 01:57:14;;;;;;;;;;;2.80;99.90;;;;;;4984023;28;19925;-77
2023/01/19 01:59:45;;;;;;;;;;;2.80;99.90;;;;;;4979121;28;19934;-76
2023/01/19 02:05:02;;;;;;;;;;;2.70;99.90;;;;;;4979383;28;19922;-77
2023/01/19 02:13:22;;;;;;;;;;;2.70;99.90;;;;;;4987499;28;19933;-76
2023/01/19 02:15:49;;;;;;;;;;;2.70;99.90;;;;;;4983562;28;20382;-77
2023/01/19 02:18:16;;;;;;;;;;;2.70;99.90;;;;;;4984257;28;19969;-76
2023/01/19 02:20:46;;;;;;;;;;;2.60;99.90;;;;;;4990477;28;20391;-76
2023/01/19 02:23:17;;;;;;;;;;;2.60;99.90;;;;;;4981073;28;19941;-76
2023/01/19 02:25:45;;;;;;;;;;;2.60;99.90;;;;;;4985258;28;19954;-76
2023/01/19 02:28:12;;;;;;;;;;;2.90;99.90;;;;;;4984904;28;20001;-76
2023/01/19 02:30:40;;;;;;;;;;;2.50;99.90;;;;;;4986392;28;19926;-76
2023/01/19 02:33:07;;;;;;;;;;;2.40;99.90;;;;;;4985445;28;19925;-76
2023/01/19 02:35:36;;;;;;;;;;;2.40;99.90;;;;;;4986516;28;19926;-76
2023/01/19 02:38:03;;;;;;;;;;;2.40;99.90;;;;;;4986642;28;19930;-76
2023/01/19 02:40:30;;;;;;;;;;;2.40;99.90;;;;;;4992698;28;19930;-75
2023/01/19 02:42:59;;;;;;;;;;;2.40;99.90;;;;;;4980745;28;19938;-76
2023/01/19 02:45:26;;;;;;;;;;;2.10;99.90;;;;;;4986505;28;20374;-76
2023/01/19 02:47:53;;;;;;;;;;;2.40;99.90;;;;;;4977533;28;19932;-76
2023/01/19 02:50:37;;;;;;;;;;;2.40;99.90;;;;;;4986445;28;19930;-76
2023/01/19 02:53:10;;;;;;;;;;;2.40;99.90;;;;;;4984529;28;20416;-76
2023/01/19 02:55:37;;;;;;;;;;;2.40;99.90;;;;;;5008036;23;19976;-76
2023/01/19 02:58:09;;;;;;;;;;;2.30;99.90;;;;;;4988122;28;19925;-77
2023/01/19 03:00:44;;;;;;;;;;;2.30;99.90;;;;;;4987997;28;20016;-77
2023/01/19 03:03:21;;;;;;;;;;;2.20;99.90;;;;;;4987535;28;20439;-78
2023/01/19 03:05:55;;;;;;;;;;;2.30;99.90;;;;;;5013698;28;20370;-77
2023/01/19 03:08:25;;;;;;;;;;;2.20;99.90;;;;;;5005952;28;19986;-77
2023/01/19 03:10:54;;;;;;;;;;;2.20;99.90;;;;;;5005970;28;20290;-77
2023/01/19 03:13:27;;;;;;;;;;;2.30;99.90;;;;;;5005967;28;19990;-77
2023/01/19 03:15:56;;;;;;;;;;;2.30;99.90;;;;;;4988543;28;19926;-77
2023/01/19 03:18:25;;;;;;;;;;;2.40;99.90;;;;;;5005758;28;20020;-77
2023/01/19 03:20:53;;;;;;;;;;;2.40;99.90;;;;;;5006257;28;20467;-77
2023/01/19 03:23:21;;;;;;;;;;;2.50;99.90;;;;;;5006000;28;19925;-77
2023/01/19 03:25:49;;;;;;;;;;;2.50;99.90;;;;;;4995426;28;19930;-77
2023/01/19 03:28:18;;;;;;;;;;;2.50;99.90;;;;;;5003272;28;20398;-77
2023/01/19 03:30:50;;;;;;;;;;;2.60;99.90;;;;;;5006284;28;19982;-77
2023/01/19 03:33:20;;;;;;;;;;;2.60;99.90;;;;;;5009068;28;19970;-77
2023/01/19 03:35:49;;;;;;;;;;;2.60;99.90;;;;;;5006167;28;20241;-79
2023/01/19 03:38:17;;;;;;;;;;;2.60;99.90;;;;;;5021348;28;19948;-79
2023/01/19 03:40:46;;;;;;;;;;;2.70;99.90;;;;;;5010807;28;19929;-79
2023/01/19 03:43:14;;;;;;;;;;;2.80;99.90;;;;;;5009625;28;19930;-79
2023/01/19 03:45:41;;;;;;;;;;;2.90;99.90;;;;;;5004887;28;19929;-79
2023/01/19 03:48:09;;;;;;;;;;;2.90;99.90;;;;;;5008957;28;19945;-80
2023/01/19 03:50:36;;;;;;;;;;;3.00;99.90;;;;;;5008080;28;19953;-78
2023/01/19 03:53:06;;;;;;;;;;;3.00;99.90;;;;;;5008694;28;20308;-79
2023/01/19 03:55:33;;;;;;;;;;;3.10;99.90;;;;;;5009570;28;19975;-78
2023/01/19 03:58:00;;;;;;;;;;;3.10;99.90;;;;;;5004953;28;19926;-79
2023/01/19 04:00:27;;;;;;;;;;;3.10;99.90;;;;;;5018372;28;19933;-80
2023/01/19 04:02:54;;;;;;;;;;;3.20;99.90;;;;;;5042230;28;20438;-78
2023/01/19 04:05:24;;;;;;;;;;;3.10;99.90;;;;;;5006941;28;20370;-79
2023/01/19 04:07:52;;;;;;;;;;;3.10;99.90;;;;;;5023450;28;19926;-78
2023/01/19 04:10:19;;;;;;;;;;;3.10;99.90;;;;;;5001838;28;20370;-78
2023/01/19 04:12:46;;;;;;;;;;;3.00;99.90;;;;;;5013040;28;19925;-79
2023/01/19 04:15:14;;;;;;;;;;;2.80;99.90;;;;;;5017076;28;20405;-78
2023/01/19 04:17:40;;;;;;;;;;;2.70;99.90;;;;;;5043867;28;19933;-79
2023/01/19 04:20:08;;;;;;;;;;;2.70;99.90;;;;;;5021812;28;19933;-79
2023/01/19 04:22:37;;;;;;;;;;;2.60;99.90;;;;;;5012411;28;20406;-79
2023/01/19 04:25:05;;;;;;;;;;;2.70;99.90;;;;;;5020386;28;19937;-79
2023/01/19 04:27:32;;;;;;;;;;;2.60;99.90;;;;;;4995220;28;20036;-78
2023/01/19 04:29:59;;;;;;;;;;;2.60;99.90;;;;;;5014306;28;19934;-78
2023/01/19 04:32:25;;;;;;;;;;;2.50;99.90;;;;;;5041403;28;20297;-79
2023/01/19 04:34:52;;;;;;;;;;;2.40;99.90;;;;;;4992303;28;20299;-79
2023/01/19 04:37:19;;;;;;;;;;;2.30;99.90;;;;;;5020865;28;19925;-79
2023/01/19 04:39:47;;;;;;;;;;;2.30;99.90;;;;;;5020744;28;19932;-78
2023/01/19 04:42:14;;;;;;;;;;;2.20;99.90;;;;;;5020605;28;19926;-79
2023/01/19 04:44:40;;;;;;;;;;;2.20;99.90;;;;;;5010354;28;19982;-78
2023/01/19 04:47:07;;;;;;;;;;;2.10;99.90;;;;;;5018577;28;19944;-79
2023/01/19 04:49:36;;;;;;;;;;;2.10;99.90;;;;;;5011680;28;20037;-79
2023/01/19 04:52:03;;;;;;;;;;;2.00;99.90;;;;;;5001410;28;19962;-79
2023/01/19 04:54:29;;;;;;;;;;;2.00;99.90;;;;;;5019407;28;19978;-79
2023/01/19 04:56:57;;;;;;;;;;;2.00;99.90;;;;;;4995127;28;19936;-79
2023/01/19 04:59:25;;;;;;;;;;;1.90;99.90;;;;;;5002018;28;19933;-79
2023/01/19 05:01:52;;;;;;;;;;;2.00;99.90;;;;;;5011844;28;20003;-79
2023/01/19 05:04:18;;;;;;;;;;;2.00;99.90;;;;;;5011374;28;19933;-79
2023/01/19 05:06:45;;;;;;;;;;;2.00;99.90;;;;;;5022669;28;19930;-79
2023/01/19 05:09:14;;;;;;;;;;;1.90;99.90;;;;;;5016821;28;19925;-79
2023/01/19 05:11:40;;;;;;;;;;;2.00;99.90;;;;;;5028549;28;19975;-79
2023/01/19 05:14:08;;;;;;;;;;;2.00;99.90;;;;;;5024101;28;19993;-78
2023/01/19 05:16:35;;;;;;;;;;;2.00;99.90;;;;;;5024369;28;19929;-78
2023/01/19 05:19:02;;;;;;;;;;;2.00;99.90;;;;;;5027853;28;20377;-78
2023/01/19 05:21:28;;;;;;;;;;;2.00;99.90;;;;;;5027033;28;19986;-78
2023/01/19 05:23:55;;;;;;;;;;;2.00;99.90;;;;;;5006304;28;19937;-79
2023/01/19 05:26:22;;;;;;;;;;;2.00;99.90;;;;;;5010862;28;20401;-78
2023/01/19 05:28:49;;;;;;;;;;;1.90;99.90;;;;;;5011544;28;19953;-79
2023/01/19 05:31:17;;;;;;;;;;;1.90;99.90;;;;;;5014763;28;20275;-78
2023/01/19 05:33:43;;;;;;;;;;;1.80;99.90;;;;;;5001202;28;19929;-78
2023/01/19 05:36:10;;;;;;;;;;;1.80;99.90;;;;;;5020673;28;19929;-80
2023/01/19 05:38:37;;;;;;;;;;;1.80;99.90;;;;;;5011829;28;19937;-78
2023/01/19 05:41:03;;;;;;;;;;;1.80;99.90;;;;;;5015232;28;20267;-79
2023/01/19 05:43:30;;;;;;;;;;;1.80;99.90;;;;;;5020779;28;19936;-82
2023/01/19 05:45:57;;;;;;;;;;;1.80;99.90;;;;;;5021150;28;19940;-79
2023/01/19 05:48:25;;;;;;;;;;;2.00;99.90;;;;;;5024884;28;19955;-79
2023/01/19 05:50:56;;;;;;;;;;;1.90;99.90;;;;;;5025747;28;19924;-78
2023/01/19 05:53:23;;;;;;;;;;;1.90;99.90;;;;;;5026160;28;19930;-79
2023/01/19 05:55:49;;;;;;;;;;;3.10;99.90;;;;;;5009644;28;19934;-78
2023/01/19 05:58:16;;;;;;;;;;;2.00;99.90;;;;;;5022265;28;19930;-78
2023/01/19 06:00:43;;;;;;;;;;;2.00;99.90;;;;;;5020242;28;19929;-78
2023/01/19 06:03:09;;;;;;;;;;;2.00;99.90;;;;;;5021994;28;19934;-78
2023/01/19 06:05:38;;;;;;;;;;;2.00;99.90;;;;;;5024486;28;19936;-78
2023/01/19 06:08:05;;;;;;;;;;;2.10;99.90;;;;;;5017251;28;19925;-77
2023/01/19 06:10:31;;;;;;;;;;;2.10;99.90;;;;;;5008807;28;19974;-77
2023/01/19 06:12:58;;;;;;;;;;;2.10;99.90;;;;;;5008111;28;19932;-77
2023/01/19 06:15:25;;;;;;;;;;;2.20;99.90;;;;;;5007639;28;19929;-77
2023/01/19 06:17:51;;;;;;;;;;;2.20;99.90;;;;;;4994418;28;19933;-77
2023/01/19 06:20:18;;;;;;;;;;;2.10;99.90;;;;;;5008771;28;19925;-77
2023/01/19 06:22:46;;;;;;;;;;;2.10;99.90;;;;;;5007297;28;19934;-78
2023/01/19 06:25:13;;;;;;;;;;;2.10;99.90;;;;;;4995792;28;19926;-77
2023/01/19 06:27:43;;;;;;;;;;;1.00;99.90;;;;;;4987449;28;20035;-78
2023/01/19 06:30:10;;;;;;;;;;;2.10;99.90;;;;;;5003888;28;19925;-78
2023/01/19 06:32:37;;;;;;;;;;;2.10;99.90;;;;;;5005239;28;19941;-78
2023/01/19 06:35:04;;;;;;;;;;;2.10;99.90;;;;;;5045161;28;19930;-78
2023/01/19 06:37:30;;;;;;;;;;;2.10;99.90;;;;;;5014279;28;19934;-78
2023/01/19 06:39:58;;;;;;;;;;;2.10;99.90;;;;;;5003914;28;19930;-78
2023/01/19 06:42:25;;;;;;;;;;;2.20;99.90;;;;;;5016251;28;19930;-78
2023/01/19 06:44:52;;;;;;;;;;;2.20;99.90;;;;;;5010067;28;19944;-78
2023/01/19 06:47:18;;;;;;;;;;;2.10;99.90;;;;;;5006760;28;19933;-78
2023/01/19 06:49:45;;;;;;;;;;;2.20;99.90;;;;;;4992731;28;19926;-79
2023/01/19 06:52:14;;;;;;;;;;;2.20;99.90;;;;;;5010848;28;19929;-78
2023/01/19 06:54:42;;;;;;;;;;;2.20;99.90;;;;;;5026805;28;20380;-77
2023/01/19 06:57:10;;;;;;;;;;;2.20;99.90;;;;;;5018526;28;19929;-79
2023/01/19 06:59:37;;;;;;;;;;;2.20;99.90;;;;;;5025385;28;20439;-77
2023/01/19 07:02:04;;;;;;;;;;;2.20;99.90;;;;;;5022915;28;20300;-77
2023/01/19 07:04:30;;;;;;;;;;;2.20;99.90;;;;;;5017585;28;19929;-76
2023/01/19 07:06:57;;;;;;;;;;;2.20;99.90;;;;;;5000991;28;20360;-78
2023/01/19 07:09:24;;;;;;;;;;;2.30;99.90;;;;;;5021945;28;19948;-79
2023/01/19 07:11:53;;;;;;;;;;;2.30;99.90;;;;;;4991172;28;19975;-76
2023/01/19 07:14:21;;;;;;;;;;;2.30;99.90;;;;;;5013523;28;19932;-76
2023/01/19 07:16:48;;;;;;;;;;;2.40;99.90;;;;;;5013324;28;20446;-78
2023/01/19 07:19:14;;;;;;;;;;;2.40;99.90;;;;;;5018061;28;19936;-78
2023/01/19 07:21:41;;;;;;;;;;;2.40;99.90;;;;;;5037872;28;19929;-77
2023/01/19 07:24:08;;;;;;;;;;;2.40;99.90;;;;;;5009863;28;20510;-78
2023/01/19 07:26:34;;;;;;;;;;;2.50;99.90;;;;;;4994057;28;19962;-78
2023/01/19 07:29:01;;;;;;;;;;;2.50;99.90;;;;;;5014442;28;19929;-77
2023/01/19 07:31:29;;;;;;;;;;;2.50;99.90;;;;;;5037546;28;20031;-78
2023/01/19 07:33:56;;;;;;;;;;;2.50;99.90;;;;;;5007533;28;19987;-77
2023/01/19 07:36:23;;;;;;;;;;;2.50;99.90;;;;;;4993700;28;19929;-78
2023/01/19 07:38:50;;;;;;;;;;;2.50;99.90;;;;;;5004923;28;19933;-78
2023/01/19 07:41:16;;;;;;;;;;;2.60;99.90;;;;;;5010672;28;19926;-79
2023/01/19 07:43:44;;;;;;;;;;;2.60;99.90;;;;;;5052745;28;19933;-78
2023/01/19 07:46:11;;;;;;;;;;;2.60;99.90;;;;;;5112390;22;19948;-80
2023/01/19 07:48:40;;;;;;;;;;;2.70;99.90;;;;;;5012489;28;19933;-80
2023/01/19 07:51:10;;;;;;;;;;;3.00;99.90;;;;;;5040172;28;19924;-80
2023/01/19 07:53:38;;;;;;;;;;;2.70;99.90;;;;;;5032839;28;20380;-80
2023/01/19 07:56:06;;;;;;;;;;;2.70;99.90;;;;;;5021660;28;19924;-80
2023/01/19 07:58:33;;;;;;;;;;;2.70;99.90;;;;;;5007717;28;19993;-80
2023/01/19 08:01:00;;;;;;;;;;;2.70;99.90;;;;;;5000569;28;19930;-81
2023/01/19 08:03:27;;;;;;;;;;;2.70;99.90;;;;;;5001896;28;19934;-82
2023/01/19 08:05:58;;;;;;;;;;;2.70;99.90;;;;;;4994327;28;19979;-81
2023/01/19 08:08:26;;;;;;;;;;;2.70;99.90;;;;;;5004687;28;20657;-81
2023/01/19 08:10:53;;;;;;;;;;;2.80;99.90;;;;;;5008994;28;20219;-81
2023/01/19 08:13:20;;;;;;;;;;;2.80;99.90;;;;;;4993457;28;20389;-81
2023/01/19 08:15:49;;;;;;;;;;;2.80;99.90;;;;;;4993871;28;19952;-80
2023/01/19 08:18:15;;;;;;;;;;;2.90;99.90;;;;;;4992871;28;19933;-80
2023/01/19 08:20:42;;;;;;;;;;;2.90;99.90;;;;;;5009601;28;19925;-81
2023/01/19 08:23:11;;;;;;;;;;;2.90;99.90;;;;;;5009075;28;19934;-81
2023/01/19 08:25:39;;;;;;;;;;;3.00;99.90;;;;;;5013584;28;19932;-81
2023/01/19 08:28:07;;;;;;;;;;;3.00;99.90;;;;;;5092661;28;20319;-81
2023/01/19 08:30:34;;;;;;;;;;;3.10;99.90;;;;;;5096863;28;19932;-81
2023/01/19 08:33:06;;;;;;;;;;;3.10;99.90;;;;;;5041333;28;19954;-81
2023/01/19 08:35:35;;;;;;;;;;;3.10;99.90;;;;;;4991276;28;19926;-80
2023/01/19 08:38:02;;;;;;;;;;;3.10;99.90;;;;;;4997602;28;19934;-81
2023/01/19 08:40:32;;;;;;;;;;;3.10;99.90;;;;;;5044852;28;19930;-81
2023/01/19 08:43:06;;;;;;;;;;;3.10;99.90;;;;;;5011662;28;19945;-81
2023/01/19 08:45:33;;;;;;;;;;;3.20;99.90;;;;;;5051842;28;19920;-82
2023/01/19 08:48:01;;;;;;;;;;;3.20;99.90;;;;;;5081484;28;19987;-81
2023/01/19 08:50:28;;;;;;;;;;;3.30;99.90;;;;;;5098931;28;19932;-81
2023/01/19 08:52:55;;;;;;;;;;;3.30;99.90;;;;;;5084079;28;19928;-81
2023/01/19 08:55:22;;;;;;;;;;;3.40;99.90;;;;;;5100560;28;20139;-81
2023/01/19 08:57:52;;;;;;;;;;;3.40;99.90;;;;;;5090376;28;19928;-81
2023/01/19 09:00:19;;;;;;;;;;;3.40;99.90;;;;;;5085635;28;19924;-81
2023/01/19 09:02:46;;;;;;;;;;;3.40;99.90;;;;;;5100456;28;20294;-81
2023/01/19 09:05:13;;;;;;;;;;;3.50;99.90;;;;;;5097111;28;19924;-80
2023/01/19 09:07:41;;;;;;;;;;;3.50;99.90;;;;;;5098887;28;19928;-80
2023/01/19 09:10:09;;;;;;;;;;;3.50;99.90;;;;;;5097456;28;19924;-81
2023/01/19 09:12:36;;;;;;;;;;;3.50;99.90;;;;;;5081399;28;19935;-81
2023/01/19 09:15:05;;;;;;;;;;;3.50;99.90;;;;;;5097345;28;19948;-79
2023/01/19 09:17:33;;;;;;;;;;;3.50;99.90;;;;;;5097735;28;20030;-80
2023/01/19 09:20:00;;;;;;;;;;;3.40;99.90;;;;;;5077560;28;19932;-80
2023/01/19 09:22:27;;;;;;;;;;;3.40;99.90;;;;;;5093499;28;19963;-80
2023/01/19 09:24:54;;;;;;;;;;;3.30;99.90;;;;;;5102051;28;19924;-79
2023/01/19 09:27:21;;;;;;;;;;;3.30;99.90;;;;;;5104478;28;20363;-80
2023/01/19 09:29:51;;;;;;;;;;;3.30;99.90;;;;;;5097865;28;19924;-79
2023/01/19 09:32:20;;;;;;;;;;;3.30;99.90;;;;;;5085115;28;19924;-80
2023/01/19 09:34:47;;;;;;;;;;;3.40;99.90;;;;;;5095806;28;20299;-80
2023/01/19 09:37:15;;;;;;;;;;;3.40;99.90;;;;;;5084497;28;19935;-80
2023/01/19 09:39:41;;;;;;;;;;;3.40;99.90;;;;;;5081786;28;19938;-79
2023/01/19 09:42:14;;;;;;;;;;;3.50;99.90;;;;;;5079793;28;19928;-80
2023/01/19 09:44:41;;;;;;;;;;;3.60;99.90;;;;;;5092029;28;20000;-80
2023/01/19 09:47:13;;;;;;;;;;;3.60;99.90;;;;;;5077713;28;19931;-79
2023/01/19 09:49:44;;;;;;;;;;;3.70;99.90;;;;;;5098025;28;19928;-79
2023/01/19 09:52:12;;;;;;;;;;;3.70;99.90;;;;;;5095956;28;19924;-80
2023/01/19 09:54:43;;;;;;;;;;;3.70;99.90;;;;;;5092984;28;20310;-80
2023/01/19 09:57:10;;;;;;;;;;;3.80;99.90;;;;;;5092733;28;19934;-80
2023/01/19 09:59:37;;;;;;;;;;;3.80;99.90;;;;;;5099125;28;19935;-79
2023/01/19 10:02:19;;;;;;;;;;;3.90;99.90;;;;;;5091361;28;20035;-79
2023/01/19 10:04:53;;;;;;;;;;;3.80;99.90;;;;;;5089456;28;20072;-81
2023/01/19 10:07:26;;;;;;;;;;;3.80;99.90;;;;;;5077924;28;19958;-79
2023/01/19 10:10:05;;;;;;;;;;;3.80;99.90;;;;;;5099178;28;19959;-79
2023/01/19 10:12:38;;;;;;;;;;;4.10;99.90;;;;;;5097375;28;19928;-79
2023/01/19 10:15:12;;;;;;;;;;;3.90;99.90;;;;;;5099482;28;20391;-79
2023/01/19 10:17:44;;;;;;;;;;;3.90;99.90;;;;;;5102480;28;20326;-78
2023/01/19 10:20:15;;;;;;;;;;;4.00;99.90;;;;;;5095414;28;20426;-79
2023/01/19 10:22:43;;;;;;;;;;;4.10;99.90;;;;;;5096372;28;19928;-80
2023/01/19 10:25:14;;;;;;;;;;;4.20;99.90;;;;;;5091814;28;19995;-80
2023/01/19 10:27:41;;;;;;;;;;;4.30;99.90;;;;;;5097502;28;20027;-79
2023/01/19 10:30:16;;;;;;;;;;;4.40;99.90;;;;;;5099555;28;20319;-79
2023/01/19 10:32:44;;;;;;;;;;;4.60;99.90;;;;;;5107679;28;19976;-80
2023/01/19 10:35:20;;;;;;;;;;;4.70;99.90;;;;;;5088961;28;19924;-79
2023/01/19 10:37:47;;;;;;;;;;;4.70;99.90;;;;;;5091769;28;19946;-79
2023/01/19 10:40:19;;;;;;;;;;;4.70;99.90;;;;;;5085123;28;19928;-79
2023/01/19 10:42:46;;;;;;;;;;;4.80;99.90;;;;;;5085658;28;19935;-79
2023/01/19 10:45:19;;;;;;;;;;;4.90;99.90;;;;;;5109453;28;20159;-79
2023/01/19 10:47:47;;;;;;;;;;;5.00;99.90;;;;;;5098270;28;19997;-79
2023/01/19 10:50:24;;;;;;;;;;;4.90;99.90;;;;;;5096163;28;19954;-79
2023/01/19 10:52:51;;;;;;;;;;;5.00;99.90;;;;;;5089458;28;19974;-79
2023/01/19 10:55:27;;;;;;;;;;;5.00;99.90;;;;;;5101058;28;19928;-79
2023/01/19 10:57:54;;;;;;;;;;;5.00;99.90;;;;;;5090787;28;19928;-79
2023/01/19 11:00:36;;;;;;;;;;;5.00;99.90;;;;;;5083752;28;19928;-80
2023/01/19 11:03:04;;;;;;;;;;;5.00;99.90;;;;;;5091642;28;19968;-80
2023/01/19 11:05:33;;;;;;;;;;;5.00;99.90;;;;;;5096514;28;19928;-80
2023/01/19 11:08:00;;;;;;;;;;;4.90;99.90;;;;;;5082652;28;19924;-80
2023/01/19 11:10:27;;;;;;;;;;;4.80;99.90;;;;;;5076278;28;19950;-80
2023/01/19 11:13:02;;;;;;;;;;;4.70;99.90;;;;;;5096345;28;20013;-80
2023/01/19 11:15:31;;;;;;;;;;;4.70;99.90;;;;;;5096819;28;20000;-80
2023/01/19 11:17:59;;;;;;;;;;;4.70;99.90;;;;;;5096316;28;19916;-80
2023/01/19 11:20:27;;;;;;;;;;;4.80;99.90;;;;;;5090754;28;19925;-80
2023/01/19 11:23:06;;;;;;;;;;;4.80;99.90;;;;;;5086442;28;20462;-79
2023/01/19 11:25:34;;;;;;;;;;;4.90;99.90;;;;;;5098059;28;19958;-80
2023/01/19 11:28:01;;;;;;;;;;;4.90;99.90;;;;;;5088516;28;19943;-80
2023/01/19 11:30:28;;;;;;;;;;;5.00;99.90;;;;;;5068726;28;20418;-81
2023/01/19 11:32:56;;;;;;;;;;;5.00;99.90;;;;;;5079539;28;19928;-80
2023/01/19 11:35:33;;;;;;;;;;;5.10;99.90;;;;;;5083954;28;19988;-80
2023/01/19 11:38:13;;;;;;;;;;;5.10;99.90;;;;;;5080381;28;20380;-80
2023/01/19 11:40:42;;;;;;;;;;;5.00;99.90;;;;;;5072367;28;20472;-80
2023/01/19 11:43:10;;;;;;;;;;;5.00;99.90;;;;;;5105368;28;19962;-81
2023/01/19 11:45:39;;;;;;;;;;;5.10;99.90;;;;;;5086111;28;20411;-79
2023/01/19 11:48:07;;;;;;;;;;;5.20;99.90;;;;;;5095899;28;20002;-80
2023/01/19 11:50:38;;;;;;;;;;;5.20;99.90;;;;;;5086961;28;19928;-80
2023/01/19 11:53:07;;;;;;;;;;;5.10;99.90;;;;;;5093840;28;19943;-80
2023/01/19 11:55:38;;;;;;;;;;;5.10;99.90;;;;;;5078147;28;19928;-80
2023/01/19 11:58:05;;;;;;;;;;;5.10;99.90;;;;;;5090690;28;19928;-80
2023/01/19 12:00:35;;;;;;;;;;;5.10;99.90;;;;;;5109798;28;19925;-80
2023/01/19 12:03:06;;;;;;;;;;;5.10;99.90;;;;;;5097328;28;20352;-80
2023/01/19 12:05:34;;;;;;;;;;;5.10;99.90;;;;;;5079214;28;19925;-80
2023/01/19 12:08:04;;;;;;;;;;;5.40;99.90;;;;;;5096876;28;19924;-80
2023/01/19 12:10:31;;;;;;;;;;;5.10;99.90;;;;;;5095201;28;19924;-80
2023/01/19 12:13:00;;;;;;;;;;;5.10;99.90;;;;;;5095175;28;20320;-80
2023/01/19 12:15:30;;;;;;;;;;;5.10;99.90;;;;;;5083352;28;19924;-80
2023/01/19 12:18:01;;;;;;;;;;;5.10;99.90;;;;;;5056530;28;22062;-80
2023/01/19 12:20:30;;;;;;;;;;;5.10;99.90;;;;;;5081939;28;19928;-81
2023/01/19 12:23:01;;;;;;;;;;;5.00;99.90;;;;;;5099915;28;19932;-80
2023/01/19 12:25:32;;;;;;;;;;;4.90;99.90;;;;;;5083833;28;19935;-80
2023/01/19 12:28:00;;;;;;;;;;;4.90;99.90;;;;;;5084739;28;19924;-80
2023/01/19 12:30:29;;;;;;;;;;;4.90;99.90;;;;;;5099330;28;19925;-80
2023/01/19 12:33:10;;;;;;;;;;;4.90;99.90;;;;;;5095414;28;20038;-80
2023/01/19 12:35:57;;;;;;;;;;;5.00;99.90;;;;;;5090548;28;19924;-80
2023/01/19 12:38:32;;;;;;;;;;;5.00;99.90;;;;;;5079773;28;19928;-80
2023/01/19 12:41:14;;;;;;;;;;;5.10;99.90;;;;;;5072445;28;19924;-80
2023/01/19 12:43:42;;;;;;;;;;;5.20;99.90;;;;;;5087644;28;19981;-80
2023/01/19 12:46:18;;;;;;;;;;;5.30;99.90;;;;;;5071745;28;19933;-79
2023/01/19 12:48:45;;;;;;;;;;;5.50;99.90;;;;;;5019693;28;19926;-80
2023/01/19 12:51:21;;;;;;;;;;;5.60;99.90;;;;;;5057483;28;20544;-80
2023/01/19 12:53:51;;;;;;;;;;;5.70;99.90;;;;;;5013780;28;20385;-79
2023/01/19 12:56:18;;;;;;;;;;;5.80;99.90;;;;;;5020200;28;19930;-80
2023/01/19 12:58:52;;;;;;;;;;;5.80;99.90;;;;;;5013056;28;20388;-80
2023/01/19 13:01:20;;;;;;;;;;;5.90;99.90;;;;;;4992900;28;19937;-79
2023/01/19 13:04:01;;;;;;;;;;;5.90;99.90;;;;;;5012542;28;20063;-80
2023/01/19 13:06:52;;;;;;;;;;;6.00;99.90;;;;;;5010292;28;19929;-80
2023/01/19 13:09:28;;;;;;;;;;;6.00;99.90;;;;;;5002475;28;19926;-80
2023/01/19 13:12:19;;;;;;;;;;;5.90;99.90;;;;;;4976585;28;19956;-82
2023/01/19 13:14:48;;;;;;;;;;;5.90;99.90;;;;;;4992143;28;20022;-81
2023/01/19 13:17:24;;;;;;;;;;;5.80;99.90;;;;;;5004370;28;19930;-83
2023/01/19 13:19:57;;;;;;;;;;;5.80;99.90;;;;;;5037405;28;20403;-82
2023/01/19 13:22:43;;;;;;;;;;;5.70;99.90;;;;;;4997904;28;19933;-82
2023/01/19 13:25:12;;;;;;;;;;;5.50;99.90;;;;;;4997444;28;20340;-82
2023/01/19 13:27:40;;;;;;;;;;;5.40;99.90;;;;;;5012584;28;19930;-82
2023/01/19 13:30:12;;;;;;;;;;;5.40;99.90;;;;;;5002114;28;19930;-84
2023/01/19 13:32:40;;;;;;;;;;;5.40;99.90;;;;;;5016301;28;19929;-82
2023/01/19 13:35:13;;;;;;;;;;;5.50;99.90;;;;;;5028972;28;20340;-81
2023/01/19 13:37:44;;;;;;;;;;;5.50;99.90;;;;;;5072837;28;19925;-81
2023/01/19 13:40:16;;;;;;;;;;;5.50;99.90;;;;;;4995342;28;19929;-82
2023/01/19 13:42:44;;;;;;;;;;;5.70;99.90;;;;;;5004490;28;19934;-82
2023/01/19 13:45:22;;;;;;;;;;;5.60;99.90;;;;;;5034626;28;19928;-82
2023/01/19 13:47:50;;;;;;;;;;;5.70;99.90;;;;;;5082243;28;19958;-81
2023/01/19 13:50:19;;;;;;;;;;;5.70;99.90;;;;;;5092107;28;19956;-81
2023/01/19 13:52:47;;;;;;;;;;;5.70;99.90;;;;;;5096770;28;19950;-83
2023/01/19 13:55:15;;;;;;;;;;;5.70;99.90;;;;;;5090147;28;19977;-84
2023/01/19 13:57:44;;;;;;;;;;;5.70;99.90;;;;;;5100119;28;19948;-82
2023/01/19 14:00:18;;;;;;;;;;;5.70;99.90;;;;;;5091970;28;20384;-82
2023/01/19 14:02:52;;;;;;;;;;;5.70;99.90;;;;;;5071060;28;19951;-81
2023/01/19 14:05:21;;;;;;;;;;;5.70;99.90;;;;;;5096749;28;19928;-81
2023/01/19 14:07:58;;;;;;;;;;;5.70;99.90;;;;;;5079987;28;19967;-81
2023/01/19 14:10:25;;;;;;;;;;;5.70;99.90;;;;;;5086381;28;19962;-81
2023/01/19 14:12:57;;;;;;;;;;;5.70;99.90;;;;;;5103915;28;19935;-84
2023/01/19 14:15:26;;;;;;;;;;;5.70;99.90;;;;;;5085241;28;19924;-82
2023/01/19 14:18:10;;;;;;;;;;;5.70;99.90;;;;;;5096860;28;20399;-81
2023/01/19 14:20:37;;;;;;;;;;;5.70;99.90;;;;;;5096695;28;19928;-83
2023/01/19 14:23:04;;;;;;;;;;;5.80;99.90;;;;;;5092912;28;20007;-83
2023/01/19 14:25:31;;;;;;;;;;;5.80;99.90;;;;;;5105630;28;19991;-82
2023/01/19 14:28:17;;;;;;;;;;;5.90;99.90;;;;;;5097291;28;20003;-83
2023/01/19 14:30:54;;;;;;;;;;;5.90;99.90;;;;;;5093578;28;19946;-82
2023/01/19 14:33:34;;;;;;;;;;;5.80;99.90;;;;;;5102799;28;20351;-82
2023/01/19 14:36:08;;;;;;;;;;;5.80;99.90;;;;;;5076275;28;19928;-82
2023/01/19 14:38:35;;;;;;;;;;;5.70;99.90;;;;;;5096951;28;20090;-82
2023/01/19 14:41:02;;;;;;;;;;;5.70;99.90;;;;;;5085342;28;19936;-82
2023/01/19 14:43:29;;;;;;;;;;;5.60;99.90;;;;;;5076299;28;20383;-82
2023/01/19 14:45:57;;;;;;;;;;;6.30;99.90;;;;;;5090481;28;19936;-84
2023/01/19 14:48:28;;;;;;;;;;;5.50;99.90;;;;;;5085182;28;20303;-83
2023/01/19 14:51:00;;;;;;;;;;;5.40;99.90;;;;;;5104268;28;19981;-81